Xin Dan Dong — BPBY — position and weather

sailwx.info

Track history (hours):
 
Tides and Currents Weather Stations Pressure Air Temp Water Temp Dewpoint Dewpoint Depression Visibility Wind Speed Wind Dir Waves Ship Positions

Xin Dan Dong

Last reported at 2014-Oct-01 06:31 UTC. Time now 2014-Oct-01 12:13 UTC.
Position N 22°39' E 113°41'.

Length 263 m; draft 12.7 m.

Type: Cargo ship. MMSI: 413153000.

Date/timePositionNaut miles runAvg speedWind from/ knotsBaromVisibWave heightAir tempDewpointWater temp
2014-Oct-01 06:31N 22°39' E 113°41'1111.4
2014-Oct-01 05:33N 22°29' E 113°45'1313.3
2014-Oct-01 04:33N 22°16' E 113°48'1211.9
2014-Oct-01 03:33N 22°04' E 113°51'6 5.9
2014-Oct-01 02:33N 22°00' E 113°56'13 6.2
2014-Oct-01 00:26N 21°56' E 114°09'19112.7
2014-Sep-30 09:19N 22°60' E 117°25'1213.4
2014-Sep-30 08:27N 23°07' E 117°34'1312.8
2014-Sep-30 07:26N 23°18' E 117°42'1112.7
2014-Sep-30 06:32N 23°25' E 117°51'1212.3
2014-Sep-30 05:32N 23°33' E 118°02'1212.5
2014-Sep-30 04:34N 23°42' E 118°11'1212.3
2014-Sep-30 03:33N 23°50' E 118°21'1212.0
2014-Sep-30 02:33N 23°58' E 118°31'2811.9
2014-Sep-30 00:14N 24°17' E 118°53'2413.0
2014-Sep-29 22:22N 24°34' E 119°13'1412.8
2014-Sep-29 21:14N 24°43' E 119°25'29312.7
2014-Sep-28 22:06N 28°44' E 122°32'2113.3
2014-Sep-28 20:29N 29°05' E 122°32'1213.2
2014-Sep-28 19:33N 29°18' E 122°32'1313.0
2014-Sep-28 18:33N 29°31' E 122°31'1212.2
2014-Sep-28 17:33N 29°41' E 122°25'1211.6
2014-Sep-28 16:33N 29°49' E 122°14'1211.9
2014-Sep-28 15:33N 29°55' E 122°03'6 1.2
2014-Sep-28 10:24N 29°56' E 121°56'0 0.0
2014-Sep-28 09:29N 29°56' E 121°56'0 0.0
2014-Sep-28 08:29N 29°56' E 121°56'0 0.0
2014-Sep-28 05:05N 29°56' E 121°56'0 0.0
2014-Sep-28 04:23N 29°56' E 121°56'0 0.3
2014-Sep-28 03:33N 29°57' E 121°56'9 9.2
2014-Sep-28 02:34N 29°56' E 122°07'1211.9
2014-Sep-28 01:32N 29°47' E 122°16'7 7.0
2014-Sep-28 00:33N 29°46' E 122°24'0 0.1
2014-Sep-27 22:27N 29°46' E 122°24'0 0.1
2014-Sep-27 21:33N 29°46' E 122°24'0 0.1
2014-Sep-27 20:33N 29°46' E 122°25'0 0.1
2014-Sep-27 18:21N 29°46' E 122°24'0 0.1
2014-Sep-27 17:27N 29°46' E 122°24'0 0.1
2014-Sep-27 15:21N 29°46' E 122°24'0 0.1
2014-Sep-27 12:21N 29°46' E 122°24'0 0.1
2014-Sep-27 10:15N 29°46' E 122°24'0 0.0
2014-Sep-27 07:27N 29°46' E 122°25'0 0.0
2014-Sep-27 00:09N 29°46' E 122°24'3 5.0
2014-Sep-26 23:33N 29°43' E 122°25'1110.8
2014-Sep-26 22:34N 29°48' E 122°36'1413.8
2014-Sep-26 21:33N 29°56' E 122°50'1413.6
2014-Sep-26 20:32N 30°06' E 123°01'1312.8
2014-Sep-26 19:30N 30°14' E 123°12'1010.9
2014-Sep-26 18:33N 30°24' E 123°15'1512.5
2014-Sep-26 17:19N 30°40' E 123°14'911.2
2014-Sep-26 16:33N 30°48' E 123°14'1311.0
2014-Sep-26 15:21N 31°02' E 123°13'34913.0
2014-Sep-25 12:23N 36°51' E 123°14'2611.9
2014-Sep-25 10:14N 37°16' E 123°08'911.9
2014-Sep-25 09:28N 37°24' E 123°02'2512.7
2014-Sep-25 07:31N 37°43' E 122°42'1313.3
2014-Sep-25 06:33N 37°49' E 122°28'1513.5
2014-Sep-25 05:28N 37°57' E 122°12'3912.9
2014-Sep-25 02:26N 38°17' E 121°30'1212.9
2014-Sep-25 01:29N 38°23' E 121°16'15312.7
2014-Sep-24 13:27N 38°55' E 118°05'1213.4
2014-Sep-24 12:33N 38°58' E 117°50'3 3.4
2014-Sep-24 11:33N 38°60' E 117°47'0 0.0
2014-Sep-24 10:27N 38°60' E 117°47'0 0.0
2014-Sep-24 09:15N 38°60' E 117°47'0 0.0
2014-Sep-24 08:09N 38°60' E 117°47'0 0.0
2014-Sep-24 07:27N 38°60' E 117°47'0 0.0
2014-Sep-24 06:33N 38°60' E 117°47'0 0.0
2014-Sep-24 05:15N 38°60' E 117°47'0 0.0
2014-Sep-24 04:27N 38°60' E 117°47'0 0.0
2014-Sep-24 03:27N 38°60' E 117°47'0 0.0
2014-Sep-24 02:33N 38°60' E 117°47'0 0.0
2014-Sep-24 01:33N 38°60' E 117°47'0 0.0
2014-Sep-24 00:27N 38°60' E 117°47'0 0.0
2014-Sep-23 23:33N 38°60' E 117°47'0 0.0
2014-Sep-23 22:15N 38°60' E 117°47'0 0.0
2014-Sep-23 21:33N 38°60' E 117°47'0 0.0
2014-Sep-23 20:21N 38°60' E 117°47'0 0.0
2014-Sep-23 19:24N 38°60' E 117°47'0 0.0
2014-Sep-23 18:30N 38°60' E 117°47'0 0.0
2014-Sep-23 17:30N 38°60' E 117°47'0 0.0
2014-Sep-23 16:30N 38°60' E 117°47'0 0.0
2014-Sep-23 14:12N 38°60' E 117°47'0 0.0
2014-Sep-23 13:18N 38°60' E 117°47'0 0.0
2014-Sep-23 12:24N 38°60' E 117°47'0 0.0
2014-Sep-23 11:30N 38°60' E 117°47'0 0.0
2014-Sep-23 10:30N 38°60' E 117°47'0 0.0
2014-Sep-23 09:24N 38°60' E 117°47'0 0.0
2014-Sep-23 08:24N 38°60' E 117°47'10 5.6
2014-Sep-23 06:33N 38°57' E 117°59'13 2.0
2014-Sep-23 00:19N 38°50' E 118°13'7210.6
2014-Sep-22 17:30N 38°47' E 119°46'0 0.3
2014-Sep-22 16:33N 38°46' E 119°46'4410.1
2014-Sep-22 12:10N 38°39' E 120°42'811.4
2014-Sep-22 11:30N 38°37' E 120°51'1111.0
2014-Sep-22 10:32N 38°33' E 121°04'1212.2
2014-Sep-22 09:34N 38°27' E 121°17'1212.3
2014-Sep-22 08:33N 38°21' E 121°30'1312.9
2014-Sep-22 07:33N 38°14' E 121°45'2613.0
2014-Sep-22 05:33N 38°01' E 122°13'1312.8
2014-Sep-22 04:33N 37°54' E 122°27'1312.5
2014-Sep-22 03:28N 37°47' E 122°41'1512.0
2014-Sep-22 02:13N 37°34' E 122°52'1115.0
2014-Sep-22 01:30N 37°25' E 122°59'2618.2
2014-Sep-22 00:05N 37°02' E 123°13'912.7
2014-Sep-21 23:21N 36°53' E 123°14'  
Track history (hours):
 
Tides and Currents Weather Stations Pressure Air Temp Water Temp Dewpoint Dewpoint Depression Visibility Wind Speed Wind Dir Waves Ship Positions

Xin Dan Dong

Last reported at 2014-Oct-01 06:31 UTC. Time now 2014-Oct-01 12:13 UTC.
Position N 22°39' E 113°41'.

Length 263 m; draft 12.7 m.

Type: Cargo ship. MMSI: 413153000.

Date/timePositionNaut miles runAvg speedWind from/ knotsBaromVisibWave heightAir tempDewpointWater temp
2014-Oct-01 06:31N 22°39' E 113°41'1111.4
2014-Oct-01 05:33N 22°29' E 113°45'1313.3
2014-Oct-01 04:33N 22°16' E 113°48'1211.9
2014-Oct-01 03:33N 22°04' E 113°51'6 5.9
2014-Oct-01 02:33N 22°00' E 113°56'13 6.2
2014-Oct-01 00:26N 21°56' E 114°09'19112.7
2014-Sep-30 09:19N 22°60' E 117°25'1213.4
2014-Sep-30 08:27N 23°07' E 117°34'1312.8
2014-Sep-30 07:26N 23°18' E 117°42'1112.7
2014-Sep-30 06:32N 23°25' E 117°51'1212.3
2014-Sep-30 05:32N 23°33' E 118°02'1212.5
2014-Sep-30 04:34N 23°42' E 118°11'1212.3
2014-Sep-30 03:33N 23°50' E 118°21'1212.0
2014-Sep-30 02:33N 23°58' E 118°31'2811.9
2014-Sep-30 00:14N 24°17' E 118°53'2413.0
2014-Sep-29 22:22N 24°34' E 119°13'1412.8
2014-Sep-29 21:14N 24°43' E 119°25'29312.7
2014-Sep-28 22:06N 28°44' E 122°32'2113.3
2014-Sep-28 20:29N 29°05' E 122°32'1213.2
2014-Sep-28 19:33N 29°18' E 122°32'1313.0
2014-Sep-28 18:33N 29°31' E 122°31'1212.2
2014-Sep-28 17:33N 29°41' E 122°25'1211.6
2014-Sep-28 16:33N 29°49' E 122°14'1211.9
2014-Sep-28 15:33N 29°55' E 122°03'6 1.2
2014-Sep-28 10:24N 29°56' E 121°56'0 0.0
2014-Sep-28 09:29N 29°56' E 121°56'0 0.0
2014-Sep-28 08:29N 29°56' E 121°56'0 0.0
2014-Sep-28 05:05N 29°56' E 121°56'0 0.0
2014-Sep-28 04:23N 29°56' E 121°56'0 0.3
2014-Sep-28 03:33N 29°57' E 121°56'9 9.2
2014-Sep-28 02:34N 29°56' E 122°07'1211.9
2014-Sep-28 01:32N 29°47' E 122°16'7 7.0
2014-Sep-28 00:33N 29°46' E 122°24'0 0.1
2014-Sep-27 22:27N 29°46' E 122°24'0 0.1
2014-Sep-27 21:33N 29°46' E 122°24'0 0.1
2014-Sep-27 20:33N 29°46' E 122°25'0 0.1
2014-Sep-27 18:21N 29°46' E 122°24'0 0.1
2014-Sep-27 17:27N 29°46' E 122°24'0 0.1
2014-Sep-27 15:21N 29°46' E 122°24'0 0.1
2014-Sep-27 12:21N 29°46' E 122°24'0 0.1
2014-Sep-27 10:15N 29°46' E 122°24'0 0.0
2014-Sep-27 07:27N 29°46' E 122°25'0 0.0
2014-Sep-27 00:09N 29°46' E 122°24'3 5.0
2014-Sep-26 23:33N 29°43' E 122°25'1110.8
2014-Sep-26 22:34N 29°48' E 122°36'1413.8
2014-Sep-26 21:33N 29°56' E 122°50'1413.6
2014-Sep-26 20:32N 30°06' E 123°01'1312.8
2014-Sep-26 19:30N 30°14' E 123°12'1010.9
2014-Sep-26 18:33N 30°24' E 123°15'1512.5
2014-Sep-26 17:19N 30°40' E 123°14'911.2
2014-Sep-26 16:33N 30°48' E 123°14'1311.0
2014-Sep-26 15:21N 31°02' E 123°13'34913.0
2014-Sep-25 12:23N 36°51' E 123°14'2611.9
2014-Sep-25 10:14N 37°16' E 123°08'911.9
2014-Sep-25 09:28N 37°24' E 123°02'2512.7
2014-Sep-25 07:31N 37°43' E 122°42'1313.3
2014-Sep-25 06:33N 37°49' E 122°28'1513.5
2014-Sep-25 05:28N 37°57' E 122°12'3912.9
2014-Sep-25 02:26N 38°17' E 121°30'1212.9
2014-Sep-25 01:29N 38°23' E 121°16'15312.7
2014-Sep-24 13:27N 38°55' E 118°05'1213.4
2014-Sep-24 12:33N 38°58' E 117°50'3 3.4
2014-Sep-24 11:33N 38°60' E 117°47'0 0.0
2014-Sep-24 10:27N 38°60' E 117°47'0 0.0
2014-Sep-24 09:15N 38°60' E 117°47'0 0.0
2014-Sep-24 08:09N 38°60' E 117°47'0 0.0
2014-Sep-24 07:27N 38°60' E 117°47'0 0.0
2014-Sep-24 06:33N 38°60' E 117°47'0 0.0
2014-Sep-24 05:15N 38°60' E 117°47'0 0.0
2014-Sep-24 04:27N 38°60' E 117°47'0 0.0
2014-Sep-24 03:27N 38°60' E 117°47'0 0.0
2014-Sep-24 02:33N 38°60' E 117°47'0 0.0
2014-Sep-24 01:33N 38°60' E 117°47'0 0.0
2014-Sep-24 00:27N 38°60' E 117°47'0 0.0
2014-Sep-23 23:33N 38°60' E 117°47'0 0.0
2014-Sep-23 22:15N 38°60' E 117°47'0 0.0
2014-Sep-23 21:33N 38°60' E 117°47'0 0.0
2014-Sep-23 20:21N 38°60' E 117°47'0 0.0
2014-Sep-23 19:24N 38°60' E 117°47'0 0.0
2014-Sep-23 18:30N 38°60' E 117°47'0 0.0
2014-Sep-23 17:30N 38°60' E 117°47'0 0.0
2014-Sep-23 16:30N 38°60' E 117°47'0 0.0
2014-Sep-23 14:12N 38°60' E 117°47'0 0.0
2014-Sep-23 13:18N 38°60' E 117°47'0 0.0
2014-Sep-23 12:24N 38°60' E 117°47'0 0.0
2014-Sep-23 11:30N 38°60' E 117°47'0 0.0
2014-Sep-23 10:30N 38°60' E 117°47'0 0.0
2014-Sep-23 09:24N 38°60' E 117°47'0 0.0
2014-Sep-23 08:24N 38°60' E 117°47'10 5.6
2014-Sep-23 06:33N 38°57' E 117°59'13 2.0
2014-Sep-23 00:19N 38°50' E 118°13'7210.6
2014-Sep-22 17:30N 38°47' E 119°46'0 0.3
2014-Sep-22 16:33N 38°46' E 119°46'4410.1
2014-Sep-22 12:10N 38°39' E 120°42'811.4
2014-Sep-22 11:30N 38°37' E 120°51'1111.0
2014-Sep-22 10:32N 38°33' E 121°04'1212.2
2014-Sep-22 09:34N 38°27' E 121°17'1212.3
2014-Sep-22 08:33N 38°21' E 121°30'1312.9
2014-Sep-22 07:33N 38°14' E 121°45'2613.0
2014-Sep-22 05:33N 38°01' E 122°13'1312.8
2014-Sep-22 04:33N 37°54' E 122°27'1312.5
2014-Sep-22 03:28N 37°47' E 122°41'1512.0
2014-Sep-22 02:13N 37°34' E 122°52'1115.0
2014-Sep-22 01:30N 37°25' E 122°59'2618.2
2014-Sep-22 00:05N 37°02' E 123°13'912.7
2014-Sep-21 23:21N 36°53' E 123°14'  

Dump ship's entire track history